createdAt,value
2023-02-11T00:01:50.276Z,38.30
2023-02-11T00:07:59.385Z,38.20
2023-02-11T00:14:08.411Z,37.80
2023-02-11T00:20:16.622Z,38.10
2023-02-11T00:26:27.698Z,38.20
2023-02-11T00:32:36.698Z,38.00
2023-02-11T00:38:46.099Z,38.20
2023-02-11T00:44:57.232Z,37.90
2023-02-11T00:51:05.382Z,36.90
2023-02-11T00:57:17.246Z,37.50
2023-02-11T01:03:26.732Z,37.90
2023-02-11T01:09:38.715Z,38.70
2023-02-11T01:15:51.078Z,39.80
2023-02-11T01:22:03.131Z,39.30
2023-02-11T01:28:15.307Z,39.50
2023-02-11T01:34:29.911Z,39.40
2023-02-11T01:40:39.869Z,39.20
2023-02-11T01:46:50.023Z,39.00
2023-02-11T01:53:02.984Z,39.60
2023-02-11T01:59:18.152Z,39.30
2023-02-11T02:05:32.888Z,39.50
2023-02-11T02:11:44.194Z,39.40
2023-02-11T02:18:16.785Z,39.30
2023-02-11T02:24:54.275Z,39.70
2023-02-11T02:31:26.182Z,39.20
2023-02-11T02:37:39.264Z,39.40
2023-02-11T02:43:54.107Z,38.90
2023-02-11T02:50:05.043Z,38.90
2023-02-11T02:56:19.380Z,38.70
2023-02-11T03:02:32.576Z,38.60
2023-02-11T03:08:43.196Z,38.70
2023-02-11T03:14:51.291Z,38.40
2023-02-11T03:21:00.705Z,38.50
2023-02-11T03:27:11.113Z,38.20
2023-02-11T03:33:21.837Z,38.10
2023-02-11T03:39:34.456Z,38.10
2023-02-11T03:45:42.695Z,37.90
2023-02-11T03:51:50.483Z,38.10
2023-02-11T03:58:00.485Z,38.10
2023-02-11T04:04:10.644Z,38.20
2023-02-11T04:10:21.189Z,38.10
2023-02-11T04:16:31.908Z,38.10
2023-02-11T04:22:41.773Z,38.00
2023-02-11T04:28:50.887Z,38.00
2023-02-11T04:35:03.875Z,38.20
2023-02-11T04:41:15.570Z,38.00
2023-02-11T04:47:24.187Z,37.90
2023-02-11T04:53:34.948Z,38.00
2023-02-11T04:59:46.139Z,37.90
2023-02-11T05:06:02.248Z,37.90
2023-02-11T05:12:14.696Z,38.00
2023-02-11T05:18:23.476Z,37.90
2023-02-11T05:24:32.416Z,37.90
2023-02-11T05:30:42.955Z,37.90
2023-02-11T05:36:57.947Z,37.90
2023-02-11T05:43:07.837Z,37.70
2023-02-11T05:49:19.624Z,37.70
2023-02-11T05:55:31.609Z,37.70
2023-02-11T06:01:42.067Z,37.70
2023-02-11T06:07:51.854Z,37.60
2023-02-11T06:14:00.442Z,37.60
2023-02-11T06:20:13.639Z,37.60
2023-02-11T06:26:24.072Z,37.50
2023-02-11T06:32:44.031Z,37.40
2023-02-11T06:38:48.627Z,37.40
2023-02-11T06:44:56.959Z,37.40
2023-02-11T06:51:12.006Z,37.30
2023-02-11T06:57:23.683Z,36.80
2023-02-11T07:03:33.590Z,37.10
2023-02-11T07:09:43.181Z,37.10
2023-02-11T07:15:54.338Z,37.40
2023-02-11T07:22:04.020Z,37.10
2023-02-11T07:28:17.282Z,36.90
2023-02-11T07:34:29.124Z,37.20
2023-02-11T07:40:40.202Z,37.20
2023-02-11T07:46:51.885Z,37.30
2023-02-11T07:53:02.136Z,37.20
2023-02-11T07:59:12.930Z,36.90
2023-02-11T08:05:24.986Z,37.00
2023-02-11T08:11:33.701Z,37.20
2023-02-11T08:17:43.440Z,37.20
2023-02-11T08:23:53.274Z,37.30
2023-02-11T08:30:02.539Z,37.40
2023-02-11T08:36:17.147Z,37.00
2023-02-11T08:42:26.293Z,37.20
2023-02-11T08:48:35.153Z,37.10
2023-02-11T08:54:46.782Z,37.30
2023-02-11T09:00:56.373Z,36.90
2023-02-11T09:07:07.894Z,36.90
2023-02-11T09:13:18.192Z,37.20
2023-02-11T09:19:28.825Z,37.40
2023-02-11T09:25:42.627Z,37.30
2023-02-11T09:31:51.600Z,36.90
2023-02-11T09:38:03.997Z,37.00
2023-02-11T09:44:16.600Z,37.00
2023-02-11T09:50:33.316Z,37.10
2023-02-11T09:56:43.789Z,37.30
2023-02-11T10:03:07.211Z,37.00
2023-02-11T10:09:30.367Z,37.00
2023-02-11T10:15:43.211Z,37.10
2023-02-11T10:21:59.239Z,37.40
2023-02-11T10:28:16.425Z,37.30
2023-02-11T10:34:23.931Z,36.90
2023-02-11T10:40:29.674Z,37.00
2023-02-11T10:46:40.877Z,36.90
2023-02-11T10:52:50.576Z,37.00
2023-02-11T10:59:07.182Z,37.20
2023-02-11T11:05:22.532Z,37.10
2023-02-11T11:11:31.948Z,36.90
2023-02-11T11:23:54.998Z,37.30
2023-02-11T11:30:06.847Z,37.10
2023-02-11T11:36:15.723Z,36.70
2023-02-11T11:42:35.417Z,36.90
2023-02-11T11:48:46.724Z,37.00
2023-02-11T11:54:59.005Z,37.20
2023-02-11T12:01:17.042Z,36.80
2023-02-11T12:07:33.525Z,36.70
2023-02-11T12:13:48.712Z,37.00
2023-02-11T12:20:19.793Z,37.20
2023-02-11T12:26:29.165Z,37.10
2023-02-11T12:32:43.102Z,37.00
2023-02-11T12:39:03.965Z,37.00
2023-02-11T12:45:38.093Z,37.10
2023-02-11T12:51:55.027Z,37.50
2023-02-11T12:58:00.945Z,38.00
2023-02-11T13:04:14.264Z,37.70
2023-02-11T13:10:27.890Z,37.20
2023-02-11T13:16:41.085Z,37.20
2023-02-11T13:22:51.358Z,37.50
2023-02-11T13:29:04.599Z,37.10
2023-02-11T13:35:31.806Z,36.80
2023-02-11T13:41:49.362Z,36.80
2023-02-11T13:48:03.469Z,36.90
2023-02-11T13:54:16.233Z,37.40
2023-02-11T14:01:03.842Z,37.70
2023-02-11T14:14:26.616Z,36.60
2023-02-11T14:27:29.796Z,37.20
2023-02-11T14:34:08.418Z,37.50
2023-02-11T14:40:25.920Z,37.10
2023-02-11T14:46:34.629Z,36.10
2023-02-11T14:52:42.240Z,36.30
2023-02-11T14:58:55.991Z,37.30
2023-02-11T15:05:31.460Z,37.40
2023-02-11T15:11:44.983Z,37.50
2023-02-11T15:17:53.494Z,36.50
2023-02-11T15:24:03.260Z,36.10
2023-02-11T15:30:30.434Z,36.20
2023-02-11T15:36:42.929Z,36.20
2023-02-11T15:42:58.821Z,36.70
2023-02-11T15:49:09.340Z,36.40
2023-02-11T15:55:21.331Z,35.80
2023-02-11T16:01:40.799Z,36.00
2023-02-11T16:07:59.383Z,35.80
2023-02-11T16:14:24.509Z,36.60
2023-02-11T16:20:31.998Z,36.50
2023-02-11T16:26:44.092Z,35.60
2023-02-11T16:32:56.408Z,35.90
2023-02-11T16:39:07.332Z,35.90
2023-02-11T16:45:18.199Z,36.60
2023-02-11T16:51:28.084Z,36.80
2023-02-11T16:57:37.114Z,36.40
2023-02-11T17:03:46.841Z,35.40
2023-02-11T17:09:58.745Z,35.40
2023-02-11T17:16:09.692Z,35.70
2023-02-11T17:22:19.077Z,35.70
2023-02-11T17:28:29.934Z,36.40
2023-02-11T17:34:41.323Z,36.20
2023-02-11T17:40:50.779Z,36.00
2023-02-11T17:47:05.164Z,35.20
2023-02-11T17:53:14.676Z,35.30
2023-02-11T17:59:28.245Z,35.50
2023-02-11T18:11:53.168Z,36.10
2023-02-11T18:18:03.479Z,35.80
2023-02-11T18:24:12.148Z,35.40
2023-02-11T18:30:24.992Z,34.90
2023-02-11T18:36:36.132Z,34.70
2023-02-11T18:42:46.918Z,34.70
2023-02-11T18:48:56.414Z,34.80
2023-02-11T18:55:07.367Z,34.80
2023-02-11T19:01:23.074Z,35.00
2023-02-11T19:07:34.189Z,35.20
2023-02-11T19:13:43.129Z,34.90
2023-02-11T19:19:53.637Z,34.50
2023-02-11T19:26:06.471Z,34.50
2023-02-11T19:32:17.005Z,34.50
2023-02-11T19:38:28.058Z,34.40
2023-02-11T19:44:37.068Z,34.80
2023-02-11T19:50:44.394Z,34.90
2023-02-11T19:56:55.327Z,34.50
2023-02-11T20:03:08.671Z,34.40
2023-02-11T20:09:17.782Z,34.30
2023-02-11T20:15:28.414Z,34.30
2023-02-11T20:21:36.602Z,34.70
2023-02-11T20:27:47.451Z,35.00
2023-02-11T20:33:58.273Z,34.20
2023-02-11T20:40:08.441Z,34.20
2023-02-11T20:46:16.755Z,34.20
2023-02-11T20:52:26.560Z,34.50
2023-02-11T20:58:38.164Z,35.10
2023-02-11T21:04:48.343Z,34.40
2023-02-11T21:11:00.387Z,34.20
2023-02-11T21:17:11.344Z,34.20
2023-02-11T21:23:18.713Z,34.50
2023-02-11T21:29:29.912Z,35.10
2023-02-11T21:35:37.279Z,35.10
2023-02-11T21:41:46.973Z,34.10
2023-02-11T21:47:56.029Z,34.30
2023-02-11T21:54:06.654Z,34.80
2023-02-11T22:00:19.821Z,35.00
2023-02-11T22:06:28.125Z,34.70
2023-02-11T22:12:37.340Z,34.20
2023-02-11T22:18:50.035Z,35.50
2023-02-11T22:25:00.762Z,36.10
2023-02-11T22:31:13.447Z,36.10
2023-02-11T22:37:22.166Z,36.00
2023-02-11T22:43:32.021Z,35.80
2023-02-11T22:49:44.273Z,35.60
2023-02-11T22:55:54.585Z,35.70
2023-02-11T23:02:07.380Z,36.00
2023-02-11T23:08:16.591Z,36.20
2023-02-11T23:14:26.279Z,36.30
2023-02-11T23:20:39.408Z,35.40
2023-02-11T23:26:50.812Z,36.20
2023-02-11T23:33:04.093Z,36.50
2023-02-11T23:39:14.720Z,36.50
2023-02-11T23:45:24.898Z,36.80
2023-02-11T23:51:32.716Z,36.70
2023-02-11T23:57:40.810Z,36.20
